Chatham, Michigan
Current Conditions -  °F | °C
As of 8:48 AM on Monday 26 Jan 2015 (Local Time) from KSAW Reporting Station
Overcast Overcast  
Wind Chill:   Ceiling: 9000
Heat Index:   Visibility: 10mi
Dew Point:   Wind: 5mph
Humidity: 85%   Direction: 180°S
Pressure: 29.85"   Gusts: NA
Location:  46.35°N, 86.93°W
Report Text: KSAW 261348Z 18004KT 10SM SCT060 BKN090 OVC110 M13/M15 A2985
Loading
Personal Weather Stations






























Interactive Weather Map New forecast layout! Learn more

10-Day Weather Forecast

Advertisements
Track Severe Weather on mobile